Time;durP1;ratioP1;P1;durP2;ratioP2;P2;SDS_P1;SDS_P2;PMS_P1;PMS_P2;Temp;Humidity;BMP_temperature;BMP_pressure;BME280_temperature;BME280_humidity;BME280_pressure;Samples;Min_cycle;Max_cycle;Signal;HPM_P1;HPM_P2
2022/10/07 00:00:20;;;;;;;3.60;1.20;;;26.30;57.60;;;;;;5021329;28;20030;-46
2022/10/07 00:02:46;;;;;;;3.97;1.13;;;26.30;57.40;;;;;;5025323;28;20093;-48
2022/10/07 00:05:12;;;;;;;4.73;1.30;;;26.30;57.30;;;;;;5024811;28;20041;-43
2022/10/07 00:07:38;;;;;;;1.33;0.88;;;26.20;56.60;;;;;;5037655;28;20060;-47
2022/10/07 00:10:05;;;;;;;4.32;1.17;;;26.20;56.40;;;;;;5028326;28;20048;-45
2022/10/07 00:12:32;;;;;;;2.97;0.85;;;26.20;56.40;;;;;;5006222;28;20038;-42
2022/10/07 00:14:58;;;;;;;1.55;0.80;;;26.10;56.20;;;;;;5011506;28;20045;-49
2022/10/07 00:17:24;;;;;;;2.10;0.60;;;26.10;56.00;;;;;;5025359;28;20040;-44
2022/10/07 00:19:50;;;;;;;1.65;0.75;;;26.10;55.50;;;;;;5033562;28;20483;-46
2022/10/07 00:22:16;;;;;;;1.30;0.50;;;26.00;55.40;;;;;;5025719;28;20029;-48
2022/10/07 00:24:42;;;;;;;1.65;0.75;;;26.00;55.20;;;;;;5023591;28;20034;-48
2022/10/07 00:27:08;;;;;;;0.70;0.50;;;25.90;54.90;;;;;;5025935;28;20543;-52
2022/10/07 00:29:35;;;;;;;0.80;0.55;;;25.90;54.60;;;;;;5022440;28;20058;-46
2022/10/07 00:32:01;;;;;;;0.73;0.50;;;25.90;54.30;;;;;;5016570;28;20040;-48
2022/10/07 00:34:27;;;;;;;1.17;0.70;;;25.80;54.30;;;;;;5025116;28;20097;-43
2022/10/07 00:36:53;;;;;;;0.60;0.50;;;25.80;53.90;;;;;;5026221;28;20120;-43
2022/10/07 00:39:19;;;;;;;0.90;0.52;;;25.70;53.70;;;;;;5026458;28;20049;-44
2022/10/07 00:41:49;;;;;;;0.90;0.60;;;25.70;53.80;;;;;;5024469;28;20030;-47
2022/10/07 00:44:30;;;;;;;0.70;0.50;;;25.70;53.70;;;;;;5027075;28;20333;-44
2022/10/07 00:47:18;;;;;;;1.05;0.60;;;25.60;53.50;;;;;;5027885;28;20034;-44
2022/10/07 00:50:07;;;;;;;1.33;0.60;;;25.60;53.40;;;;;;5011184;28;20549;-47
2022/10/07 00:52:38;;;;;;;2.90;0.60;;;25.50;53.50;;;;;;5017595;28;20032;-46
2022/10/07 00:55:07;;;;;;;1.40;0.60;;;25.50;53.30;;;;;;5022240;28;20032;-52
2022/10/07 00:57:33;;;;;;;0.50;0.47;;;25.40;53.10;;;;;;5022684;28;20498;-49
2022/10/07 00:59:59;;;;;;;1.98;0.40;;;25.40;53.10;;;;;;5032584;28;20034;-52
2022/10/07 01:02:26;;;;;;;0.82;0.57;;;25.30;52.90;;;;;;5027925;28;20050;-54
2022/10/07 01:04:57;;;;;;;0.93;0.50;;;25.30;52.80;;;;;;5026590;28;20050;-46
2022/10/07 01:07:23;;;;;;;0.80;0.55;;;25.20;52.60;;;;;;5033383;28;20026;-47
2022/10/07 01:09:50;;;;;;;0.77;0.40;;;25.20;52.60;;;;;;5039963;28;20048;-45
2022/10/07 01:12:20;;;;;;;0.90;0.60;;;25.20;52.60;;;;;;5038397;28;20060;-47
2022/10/07 01:15:15;;;;;;;0.75;0.40;;;25.10;52.30;;;;;;5032038;28;20025;-47
2022/10/07 01:18:05;;;;;;;0.80;0.50;;;25.00;52.10;;;;;;5024425;28;20030;-46
2022/10/07 01:20:56;;;;;;;1.55;0.63;;;25.00;52.80;;;;;;5008658;28;20077;-46
2022/10/07 01:23:55;;;;;;;1.88;0.63;;;24.90;52.30;;;;;;5020373;28;20026;-47
2022/10/07 01:26:32;;;;;;;1.58;0.70;;;24.80;52.40;;;;;;5013974;28;20042;-47
2022/10/07 01:29:02;;;;;;;3.45;1.17;;;24.80;52.50;;;;;;5011600;28;20126;-46
2022/10/07 01:31:34;;;;;;;3.35;0.93;;;24.70;52.40;;;;;;5044574;28;20048;-50
2022/10/07 01:34:00;;;;;;;3.03;0.82;;;24.70;52.90;;;;;;5028067;28;20097;-51
2022/10/07 01:36:27;;;;;;;1.52;0.60;;;24.60;53.00;;;;;;5018501;28;20030;-48
2022/10/07 01:39:01;;;;;;;1.33;0.65;;;24.60;52.80;;;;;;5021508;28;20041;-48
2022/10/07 01:41:27;;;;;;;1.80;0.80;;;24.50;52.50;;;;;;5026636;28;20029;-50
2022/10/07 01:43:53;;;;;;;2.38;0.70;;;24.50;52.30;;;;;;5024320;28;20057;-47
2022/10/07 01:46:24;;;;;;;1.90;0.70;;;24.50;52.30;;;;;;5040730;28;20034;-46
2022/10/07 01:48:53;;;;;;;0.75;0.43;;;24.40;52.10;;;;;;5023607;28;20034;-49
2022/10/07 01:51:24;;;;;;;0.95;0.52;;;24.40;52.10;;;;;;5026637;28;20093;-53
2022/10/07 01:54:01;;;;;;;1.27;0.60;;;24.30;52.10;;;;;;5028166;28;20033;-52
2022/10/07 01:56:55;;;;;;;1.48;0.52;;;24.20;52.20;;;;;;5021416;28;20089;-52
2022/10/07 01:59:21;;;;;;;2.28;0.70;;;24.20;52.10;;;;;;5017733;28;20047;-50
2022/10/07 02:02:23;;;;;;;2.25;0.55;;;24.10;52.20;;;;;;5026709;28;20100;-52
2022/10/07 02:05:14;;;;;;;2.28;0.60;;;24.10;52.10;;;;;;4982552;28;20635;-60
2022/10/07 02:08:06;;;;;;;1.10;0.68;;;24.00;52.10;;;;;;4990174;28;20038;-48
2022/10/07 02:10:34;;;;;;;0.85;0.57;;;24.00;52.10;;;;;;4958053;28;20043;-59
2022/10/07 02:13:23;;;;;;;1.15;0.60;;;23.90;52.20;;;;;;4982277;28;20027;-54
2022/10/07 02:16:19;;;;;;;0.90;0.50;;;23.80;52.10;;;;;;4982956;28;20059;-51
2022/10/07 02:18:49;;;;;;;0.90;0.50;;;23.80;51.90;;;;;;4979628;28;20039;-52
2022/10/07 02:21:17;;;;;;;0.55;0.55;;;23.80;52.00;;;;;;4965757;28;20023;-48
2022/10/07 02:23:43;;;;;;;0.90;0.52;;;23.70;52.00;;;;;;4978494;28;20733;-49
2022/10/07 02:26:11;;;;;;;0.50;0.45;;;23.70;52.10;;;;;;4983130;28;20035;-49
2022/10/07 02:28:39;;;;;;;0.60;0.60;;;23.60;52.20;;;;;;4981781;28;20034;-52
2022/10/07 02:31:05;;;;;;;1.75;0.60;;;23.60;52.20;;;;;;4977845;28;20126;-55
2022/10/07 02:33:31;;;;;;;0.63;0.40;;;23.50;52.10;;;;;;4978461;28;20019;-49
2022/10/07 02:36:03;;;;;;;0.43;0.40;;;23.50;52.10;;;;;;4979968;28;20136;-50
2022/10/07 02:38:29;;;;;;;0.60;0.50;;;23.50;52.00;;;;;;4980276;28;20046;-56
2022/10/07 02:41:30;;;;;;;0.50;0.50;;;23.40;52.00;;;;;;4985777;28;20507;-56
2022/10/07 02:44:24;;;;;;;0.60;0.50;;;23.30;52.00;;;;;;5006755;28;20124;-54
2022/10/07 02:47:34;;;;;;;0.52;0.38;;;23.30;52.10;;;;;;5016481;28;20061;-49
2022/10/07 02:50:03;;;;;;;0.40;0.40;;;23.20;52.10;;;;;;5020446;28;20041;-47
2022/10/07 02:52:30;;;;;;;0.70;0.45;;;23.20;52.20;;;;;;5019403;28;20495;-51
2022/10/07 02:55:10;;;;;;;0.75;0.50;;;23.10;52.10;;;;;;5022536;28;20075;-47
2022/10/07 02:57:38;;;;;;;0.40;0.40;;;23.10;52.10;;;;;;5016817;28;20056;-50
2022/10/07 03:00:05;;;;;;;0.75;0.52;;;23.10;52.20;;;;;;5022456;28;20100;-47
2022/10/07 03:02:52;;;;;;;1.52;0.68;;;23.00;52.30;;;;;;5015236;28;20057;-48
2022/10/07 03:05:19;;;;;;;0.57;0.50;;;23.00;52.30;;;;;;5011331;28;20120;-49
2022/10/07 03:07:50;;;;;;;0.88;0.70;;;22.90;52.40;;;;;;5025154;28;20688;-49
2022/10/07 03:10:16;;;;;;;0.60;0.50;;;22.90;52.50;;;;;;5022998;28;20042;-46
2022/10/07 03:12:42;;;;;;;0.65;0.55;;;22.80;52.60;;;;;;5026011;28;20044;-47
2022/10/07 03:15:12;;;;;;;4.57;0.68;;;22.80;52.80;;;;;;5022432;28;20022;-46
2022/10/07 03:17:39;;;;;;;1.55;0.45;;;22.80;52.90;;;;;;5014957;28;20112;-47
2022/10/07 03:20:06;;;;;;;1.20;0.60;;;22.70;53.00;;;;;;5004422;28;20487;-44
2022/10/07 03:22:33;;;;;;;1.40;0.60;;;22.70;53.20;;;;;;5024141;28;20084;-46
2022/10/07 03:24:59;;;;;;;0.77;0.60;;;22.70;53.30;;;;;;5018160;28;20030;-45
2022/10/07 03:27:25;;;;;;;1.25;0.60;;;22.70;53.50;;;;;;5017048;28;20076;-47
2022/10/07 03:29:53;;;;;;;0.93;0.70;;;22.60;53.60;;;;;;5020419;28;20072;-52
2022/10/07 03:32:19;;;;;;;1.10;0.80;;;22.60;53.80;;;;;;5021209;28;20034;-51
2022/10/07 03:34:45;;;;;;;0.80;0.70;;;22.60;54.00;;;;;;5026919;28;20030;-46
2022/10/07 03:37:11;;;;;;;1.52;0.70;;;22.60;54.10;;;;;;5018380;28;20062;-45
2022/10/07 03:39:37;;;;;;;1.35;0.60;;;22.50;54.20;;;;;;5022125;28;20030;-44
2022/10/07 03:42:04;;;;;;;0.60;0.60;;;22.50;54.30;;;;;;5019194;28;20056;-46
2022/10/07 03:44:30;;;;;;;1.02;0.73;;;22.50;54.40;;;;;;5029446;28;20061;-45
2022/10/07 03:46:57;;;;;;;1.02;0.70;;;22.50;54.60;;;;;;5027928;28;20179;-50
2022/10/07 03:49:23;;;;;;;1.05;0.68;;;22.40;54.60;;;;;;5026083;28;20033;-45
2022/10/07 03:51:50;;;;;;;0.55;0.55;;;22.40;54.70;;;;;;5008117;28;20047;-43
2022/10/07 03:54:36;;;;;;;1.27;0.80;;;22.40;54.80;;;;;;4985502;28;20490;-45
2022/10/07 03:57:48;;;;;;;1.08;0.85;;;22.40;54.90;;;;;;4999660;28;20050;-44
2022/10/07 03:59:49;;;;;;;0.70;0.55;;;22.30;54.90;;;;;;4997471;28;20982;-47
2022/10/07 04:02:15;;;;;;;0.82;0.68;;;22.30;55.00;;;;;;4998137;28;20043;-54
2022/10/07 04:04:41;;;;;;;0.50;0.50;;;22.30;55.10;;;;;;4993287;28;20031;-44
2022/10/07 04:07:07;;;;;;;0.80;0.70;;;22.30;55.20;;;;;;4988277;28;20190;-45
2022/10/07 04:09:33;;;;;;;1.38;0.70;;;22.30;55.30;;;;;;4992537;28;20023;-47
2022/10/07 04:12:00;;;;;;;0.70;0.60;;;22.20;55.40;;;;;;4993292;28;20039;-44
2022/10/07 04:14:26;;;;;;;1.42;0.70;;;22.20;55.50;;;;;;4991924;28;20105;-44
2022/10/07 04:16:52;;;;;;;1.13;0.70;;;22.20;55.60;;;;;;4993292;28;20042;-50
2022/10/07 04:19:18;;;;;;;1.30;0.70;;;22.20;55.60;;;;;;4990885;28;20049;-55
2022/10/07 04:21:44;;;;;;;1.15;0.80;;;22.20;55.70;;;;;;4993447;28;20060;-55
2022/10/07 04:24:11;;;;;;;1.25;0.80;;;22.10;55.80;;;;;;4992650;28;20033;-52
2022/10/07 04:26:37;;;;;;;0.70;0.63;;;22.10;55.60;;;;;;4991194;28;20586;-53
2022/10/07 04:29:03;;;;;;;1.02;0.63;;;22.10;55.70;;;;;;4993104;28;20034;-51
2022/10/07 04:31:29;;;;;;;0.73;0.63;;;22.10;55.80;;;;;;5000592;28;20510;-52
2022/10/07 04:33:55;;;;;;;1.55;0.77;;;22.10;56.00;;;;;;5017086;28;20116;-53
2022/10/07 04:36:22;;;;;;;1.20;0.88;;;22.10;56.00;;;;;;5016795;28;20076;-50
2022/10/07 04:38:51;;;;;;;1.47;0.73;;;22.10;56.20;;;;;;5021895;28;20032;-49
2022/10/07 04:41:17;;;;;;;1.80;0.90;;;22.10;56.30;;;;;;5020684;28;20041;-51
2022/10/07 04:43:43;;;;;;;0.70;0.70;;;22.00;56.30;;;;;;5022042;28;20026;-51
2022/10/07 04:46:12;;;;;;;1.35;0.90;;;22.00;56.30;;;;;;5008576;28;20046;-51
2022/10/07 04:48:39;;;;;;;1.20;0.90;;;22.00;56.40;;;;;;5007311;28;20060;-52
2022/10/07 04:51:07;;;;;;;2.05;0.90;;;22.00;56.40;;;;;;5023425;28;20033;-53
2022/10/07 04:53:34;;;;;;;1.20;0.82;;;22.00;56.60;;;;;;5028784;28;20094;-47
2022/10/07 04:56:00;;;;;;;1.35;0.90;;;22.00;56.70;;;;;;5024348;28;20034;-48
2022/10/07 04:58:26;;;;;;;1.70;1.00;;;22.00;56.70;;;;;;5031409;28;20126;-51
2022/10/07 05:00:53;;;;;;;1.48;0.80;;;22.00;56.80;;;;;;5030293;28;20033;-50
2022/10/07 05:03:21;;;;;;;1.30;0.98;;;21.90;56.80;;;;;;5025030;28;20061;-48
2022/10/07 05:05:48;;;;;;;1.40;0.82;;;21.90;56.90;;;;;;5024983;28;20081;-49
2022/10/07 05:08:16;;;;;;;0.90;0.80;;;21.90;56.90;;;;;;5025004;28;20033;-52
2022/10/07 05:10:42;;;;;;;1.25;0.90;;;21.90;56.90;;;;;;5024267;28;20037;-47
2022/10/07 05:13:11;;;;;;;2.93;0.83;;;21.90;57.00;;;;;;5024514;28;20089;-44
2022/10/07 05:15:58;;;;;;;1.30;1.00;;;21.90;57.10;;;;;;5024293;28;20422;-55
2022/10/07 05:18:25;;;;;;;1.00;0.70;;;21.90;57.10;;;;;;5030314;28;20447;-58
2022/10/07 05:20:52;;;;;;;2.22;0.95;;;21.80;57.00;;;;;;5017813;28;20085;-52
2022/10/07 05:23:20;;;;;;;1.58;0.90;;;21.80;57.10;;;;;;5020718;28;20089;-51
2022/10/07 05:25:46;;;;;;;1.27;1.00;;;21.80;57.20;;;;;;5025194;28;20107;-51
2022/10/07 05:28:13;;;;;;;1.10;0.90;;;21.80;57.30;;;;;;5005015;28;20029;-45
2022/10/07 05:30:39;;;;;;;1.20;1.00;;;21.80;57.40;;;;;;5008718;28;20054;-51
2022/10/07 05:33:06;;;;;;;2.33;1.03;;;21.80;57.30;;;;;;5013173;28;20034;-50
2022/10/07 05:35:32;;;;;;;1.30;0.93;;;21.80;57.40;;;;;;5027109;28;20033;-47
2022/10/07 05:37:59;;;;;;;1.13;1.00;;;21.80;57.40;;;;;;5024728;28;20715;-47
2022/10/07 05:40:25;;;;;;;1.00;0.90;;;21.80;57.40;;;;;;5016917;28;20042;-50
2022/10/07 05:42:52;;;;;;;1.13;0.90;;;21.80;57.40;;;;;;5022102;28;20061;-48
2022/10/07 05:45:18;;;;;;;1.10;0.80;;;21.80;57.40;;;;;;5024518;28;20046;-47
2022/10/07 05:47:46;;;;;;;1.50;1.00;;;21.70;57.40;;;;;;5022931;28;20037;-46
2022/10/07 05:50:13;;;;;;;1.48;1.10;;;21.70;57.30;;;;;;5022233;28;20279;-50
2022/10/07 05:52:39;;;;;;;1.23;0.90;;;21.70;57.30;;;;;;5025229;28;20037;-52
2022/10/07 05:55:05;;;;;;;1.88;1.10;;;21.70;57.40;;;;;;5026850;28;20042;-47
2022/10/07 05:57:32;;;;;;;1.45;1.02;;;21.70;57.50;;;;;;5023678;28;20033;-51
2022/10/07 05:59:58;;;;;;;1.20;1.00;;;21.70;57.40;;;;;;5031505;28;20037;-52
2022/10/07 06:02:24;;;;;;;2.15;1.40;;;21.70;57.50;;;;;;5023260;28;20029;-53
2022/10/07 06:04:50;;;;;;;1.15;0.85;;;21.70;57.50;;;;;;5030849;28;20038;-49
2022/10/07 06:07:16;;;;;;;1.10;0.98;;;21.60;57.30;;;;;;5024002;28;20030;-51
2022/10/07 06:15:12;;;;;;;1.15;1.05;;;21.60;57.40;;;;;;5012799;28;20103;-46
2022/10/07 06:17:44;;;;;;;1.50;1.00;;;21.60;57.40;;;;;;5022133;28;20098;-49
2022/10/07 06:20:12;;;;;;;1.17;0.75;;;21.60;57.40;;;;;;5020807;28;20711;-47
2022/10/07 06:22:38;;;;;;;1.30;1.10;;;21.60;57.40;;;;;;5023769;28;20038;-45
2022/10/07 06:25:05;;;;;;;1.98;1.30;;;21.60;57.50;;;;;;5034168;28;20042;-49
2022/10/07 06:27:31;;;;;;;1.17;1.05;;;21.60;57.40;;;;;;5033991;28;20036;-42
2022/10/07 06:29:57;;;;;;;1.58;1.10;;;21.50;57.40;;;;;;5029289;28;20054;-45
2022/10/07 06:32:24;;;;;;;1.95;1.08;;;21.50;57.40;;;;;;5020339;28;20030;-46
2022/10/07 06:34:50;;;;;;;1.08;0.98;;;21.50;57.30;;;;;;5033606;28;20034;-47
2022/10/07 06:37:16;;;;;;;1.83;1.10;;;21.50;57.40;;;;;;5023743;28;20030;-45
2022/10/07 06:39:42;;;;;;;1.33;1.10;;;21.50;57.30;;;;;;5028125;28;20034;-46
2022/10/07 06:42:08;;;;;;;1.88;0.90;;;21.50;57.40;;;;;;5022411;28;20546;-44
2022/10/07 06:44:35;;;;;;;1.27;1.10;;;21.50;57.50;;;;;;5023269;28;20042;-44
2022/10/07 06:47:01;;;;;;;1.45;1.30;;;21.50;57.60;;;;;;5020196;28;20038;-61
2022/10/07 06:49:27;;;;;;;1.45;1.05;;;21.50;57.60;;;;;;5017179;28;20026;-60
2022/10/07 06:51:53;;;;;;;1.40;1.00;;;21.40;57.60;;;;;;5020912;28;20245;-52
2022/10/07 06:54:19;;;;;;;1.50;1.20;;;21.40;57.60;;;;;;5020271;28;20089;-51
2022/10/07 06:56:45;;;;;;;1.70;1.08;;;21.40;57.60;;;;;;5023088;28;20045;-46
2022/10/07 06:59:11;;;;;;;1.45;1.20;;;21.40;57.60;;;;;;5029654;28;20026;-49
2022/10/07 07:01:38;;;;;;;1.38;1.10;;;21.40;57.60;;;;;;5027006;28;20030;-48
2022/10/07 07:04:04;;;;;;;1.38;1.17;;;21.40;57.70;;;;;;5019448;28;20157;-46
2022/10/07 07:06:31;;;;;;;1.48;1.10;;;21.40;57.70;;;;;;5018913;28;20041;-48
2022/10/07 07:09:04;;;;;;;3.83;1.20;;;21.40;57.70;;;;;;5019577;28;20038;-52
2022/10/07 07:11:37;;;;;;;1.33;1.17;;;21.40;57.70;;;;;;5022384;28;20105;-50
2022/10/07 07:14:04;;;;;;;1.67;1.17;;;21.30;57.80;;;;;;5036904;28;20029;-50
2022/10/07 07:16:30;;;;;;;2.22;1.15;;;21.30;57.80;;;;;;5023129;28;20026;-46
2022/10/07 07:19:01;;;;;;;1.35;1.17;;;21.30;57.90;;;;;;5029398;28;20044;-51
2022/10/07 07:21:32;;;;;;;2.28;1.42;;;21.30;57.80;;;;;;5013847;28;20045;-45
2022/10/07 07:23:58;;;;;;;1.30;1.20;;;21.30;57.80;;;;;;5026760;28;20041;-44
2022/10/07 07:26:27;;;;;;;2.90;1.13;;;21.30;57.90;;;;;;5014705;28;20073;-45
2022/10/07 07:29:01;;;;;;;1.77;1.10;;;21.30;57.90;;;;;;5022766;28;20021;-45
2022/10/07 07:31:28;;;;;;;2.00;1.00;;;21.30;57.80;;;;;;5022140;28;20920;-46
2022/10/07 07:33:56;;;;;;;2.38;1.40;;;21.30;57.90;;;;;;5022558;28;20048;-49
2022/10/07 07:36:23;;;;;;;2.58;1.02;;;21.20;57.80;;;;;;5017140;28;20433;-49
2022/10/07 07:38:51;;;;;;;1.88;1.10;;;21.20;58.40;;;;;;5014131;28;20034;-48
2022/10/07 07:41:24;;;;;;;1.92;1.40;;;21.20;57.90;;;;;;5016304;28;20057;-50
2022/10/07 07:43:51;;;;;;;1.38;1.10;;;21.20;58.10;;;;;;5015032;28;20046;-52
2022/10/07 07:46:18;;;;;;;1.83;1.30;;;21.20;58.00;;;;;;5017468;28;20684;-42
2022/10/07 07:48:45;;;;;;;1.40;1.10;;;21.20;58.00;;;;;;5016312;28;20061;-48
2022/10/07 07:51:12;;;;;;;1.85;1.35;;;21.20;58.00;;;;;;5014934;28;20042;-47
2022/10/07 07:53:38;;;;;;;;;;;21.10;58.00;;;;;;5014880;28;20809;-49
2022/10/07 07:56:04;;;;;;;1.55;1.17;;;21.10;58.10;;;;;;5017630;28;19945;-47
2022/10/07 07:58:31;;;;;;;1.60;1.13;;;21.10;58.10;;;;;;5015264;28;20030;-45
2022/10/07 08:01:02;;;;;;;1.40;1.05;;;21.10;58.10;;;;;;5014760;28;20030;-53
2022/10/07 08:03:28;;;;;;;1.52;1.30;;;21.10;58.10;;;;;;5015289;28;20034;-58
2022/10/07 08:05:54;;;;;;;1.50;1.23;;;21.10;58.10;;;;;;5018038;28;20101;-59
2022/10/07 08:08:21;;;;;;;2.03;1.02;;;21.10;58.20;;;;;;5017020;28;20030;-57
2022/10/07 08:10:47;;;;;;;1.50;1.13;;;21.00;58.10;;;;;;5016458;28;20108;-44
2022/10/07 08:13:13;;;;;;;2.95;1.45;;;21.00;58.10;;;;;;5026269;28;20513;-45
2022/10/07 08:15:39;;;;;;;3.28;1.40;;;21.00;58.20;;;;;;5032649;28;20054;-51
2022/10/07 08:18:06;;;;;;;8.07;1.80;;;21.00;58.10;;;;;;5022225;28;20029;-48
2022/10/07 08:20:32;;;;;;;;;;;21.00;58.30;;;;;;5040645;28;20040;-43
2022/10/07 08:22:58;;;;;;;4.65;2.00;;;21.00;58.50;;;;;;5030030;28;19913;-48
2022/10/07 08:25:27;;;;;;;11.00;2.35;;;21.00;58.70;;;;;;5028185;28;20496;-44
2022/10/07 08:27:53;;;;;;;10.20;2.70;;;21.00;59.10;;;;;;5045349;28;20021;-44
2022/10/07 08:30:19;;;;;;;9.60;2.22;;;20.90;59.10;;;;;;5029556;28;20125;-45
2022/10/07 08:32:45;;;;;;;10.40;2.22;;;20.90;59.10;;;;;;5023662;28;20069;-45
2022/10/07 08:35:11;;;;;;;6.47;2.05;;;20.90;59.10;;;;;;5024214;28;20097;-46
2022/10/07 08:37:37;;;;;;;8.60;2.03;;;20.90;59.00;;;;;;5020374;28;20106;-44
2022/10/07 08:40:04;;;;;;;6.03;1.75;;;20.90;58.90;;;;;;5026408;28;20066;-44
2022/10/07 08:42:34;;;;;;;4.72;1.88;;;20.90;58.80;;;;;;5016828;28;20030;-44
2022/10/07 08:45:00;;;;;;;6.22;1.73;;;20.90;58.80;;;;;;5020961;28;20532;-47
2022/10/07 08:47:29;;;;;;;4.10;1.80;;;20.90;58.70;;;;;;5027101;28;20026;-52
2022/10/07 08:50:23;;;;;;;5.18;1.73;;;20.90;58.60;;;;;;5009505;28;20030;-45
2022/10/07 08:52:50;;;;;;;4.22;1.80;;;20.90;58.50;;;;;;5020534;28;20049;-47
2022/10/07 08:55:27;;;;;;;3.17;1.88;;;20.90;58.50;;;;;;5022722;28;20029;-44
2022/10/07 08:58:03;;;;;;;3.83;2.00;;;20.90;58.50;;;;;;5023283;28;20038;-45
2022/10/07 09:00:39;;;;;;;4.10;2.15;;;20.80;58.40;;;;;;5021910;28;20061;-45
2022/10/07 09:03:12;;;;;;;5.28;1.90;;;20.80;58.30;;;;;;5023195;28;20490;-46
2022/10/07 09:05:41;;;;;;;5.07;2.15;;;20.80;58.30;;;;;;5045350;28;20037;-46
2022/10/07 09:08:31;;;;;;;4.88;1.95;;;20.80;58.30;;;;;;5025492;28;20080;-46
2022/10/07 09:10:59;;;;;;;3.78;2.00;;;20.80;58.20;;;;;;5008202;28;20034;-45
2022/10/07 09:13:30;;;;;;;2.97;1.75;;;20.70;58.20;;;;;;5026287;28;20037;-49
2022/10/07 09:16:10;;;;;;;4.50;1.88;;;20.70;58.10;;;;;;5031698;28;20514;-45
2022/10/07 09:18:41;;;;;;;2.80;1.67;;;20.70;58.20;;;;;;5022855;28;20049;-48
2022/10/07 09:21:21;;;;;;;2.85;1.92;;;20.70;58.20;;;;;;5025099;28;20148;-50
2022/10/07 09:23:47;;;;;;;6.38;1.77;;;20.70;58.10;;;;;;5017866;28;20049;-51
2022/10/07 09:26:15;;;;;;;5.30;1.83;;;20.60;58.20;;;;;;5019794;28;20168;-49
2022/10/07 09:28:41;;;;;;;2.72;1.70;;;20.60;58.00;;;;;;5012212;28;20549;-50
2022/10/07 09:31:10;;;;;;;4.20;1.83;;;20.60;57.90;;;;;;5013577;28;20054;-49
2022/10/07 09:33:45;;;;;;;4.90;1.85;;;20.60;58.00;;;;;;5030778;28;20037;-49
2022/10/07 09:36:15;;;;;;;3.63;1.95;;;20.60;57.90;;;;;;5017746;28;20030;-52
2022/10/07 09:38:46;;;;;;;5.18;1.80;;;20.60;58.00;;;;;;5023867;28;20108;-54
2022/10/07 09:41:30;;;;;;;3.03;1.60;;;20.60;57.90;;;;;;5024591;28;20025;-51
2022/10/07 09:44:15;;;;;;;3.22;1.83;;;20.50;57.90;;;;;;5021727;28;20030;-52
2022/10/07 09:46:45;;;;;;;3.17;1.77;;;20.50;57.90;;;;;;5017688;28;20038;-50
2022/10/07 09:49:27;;;;;;;4.43;1.70;;;20.50;57.90;;;;;;5038247;28;20030;-53
2022/10/07 09:52:00;;;;;;;2.80;1.48;;;20.50;57.90;;;;;;5005124;28;20042;-54
2022/10/07 09:54:27;;;;;;;3.10;1.65;;;20.40;57.90;;;;;;5021081;28;20026;-50
2022/10/07 09:56:57;;;;;;;2.53;1.80;;;20.40;57.90;;;;;;5024170;28;20026;-53
2022/10/07 09:59:28;;;;;;;3.60;1.80;;;20.40;57.90;;;;;;5023624;28;20284;-52
2022/10/07 10:01:55;;;;;;;3.33;1.60;;;20.40;57.90;;;;;;5023443;28;20026;-51
2022/10/07 10:04:37;;;;;;;3.35;1.67;;;20.40;57.90;;;;;;5008941;28;20073;-52
2022/10/07 10:07:05;;;;;;;3.30;1.73;;;20.40;57.90;;;;;;5020257;28;20034;-49
2022/10/07 10:09:32;;;;;;;3.00;1.70;;;20.30;57.90;;;;;;5029048;28;20033;-52
2022/10/07 10:12:18;;;;;;;2.72;1.80;;;20.30;57.80;;;;;;5022113;28;20030;-53
2022/10/07 10:14:55;;;;;;;1.95;1.48;;;20.30;57.80;;;;;;5008556;28;20126;-52
2022/10/07 10:17:37;;;;;;;3.50;1.80;;;20.30;57.80;;;;;;5018486;28;20096;-48
2022/10/07 10:20:34;;;;;;;3.88;1.77;;;20.30;57.90;;;;;;5029760;28;20037;-49
2022/10/07 10:23:02;;;;;;;2.22;1.70;;;20.20;57.80;;;;;;5020054;28;20038;-49
2022/10/07 10:28:37;;;;;;;2.95;1.58;;;20.20;57.80;;;;;;5030997;28;19919;-41
2022/10/07 10:31:34;;;;;;;3.38;2.10;;;20.20;57.90;;;;;;5010270;28;20048;-49
2022/10/07 10:34:08;;;;;;;2.05;1.70;;;20.20;57.90;;;;;;5008660;28;20045;-46
2022/10/07 10:36:36;;;;;;;3.40;2.00;;;20.20;59.40;;;;;;5029966;28;20034;-37
2022/10/07 10:39:24;;;;;;;4.75;1.95;;;20.10;60.80;;;;;;5013520;28;20376;-41
2022/10/07 10:41:59;;;;;;;3.15;1.67;;;20.10;61.30;;;;;;5014182;28;20050;-49
2022/10/07 10:44:38;;;;;;;2.42;1.77;;;20.10;62.60;;;;;;5043698;28;20037;-68
2022/10/07 10:47:25;;;;;;;2.63;1.73;;;20.20;63.60;;;;;;5013964;28;20045;-43
2022/10/07 10:50:06;;;;;;;4.40;1.73;;;20.20;64.40;;;;;;5012513;28;20025;-36
2022/10/07 10:52:48;;;;;;;2.53;1.40;;;20.20;65.00;;;;;;5011439;28;20030;-43
2022/10/07 10:55:28;;;;;;;3.08;1.60;;;20.20;65.30;;;;;;5010963;28;20108;-37
2022/10/07 10:58:14;;;;;;;3.05;1.35;;;20.20;65.70;;;;;;5013216;28;20033;-39
2022/10/07 11:00:58;;;;;;;1.90;1.23;;;20.30;66.10;;;;;;5014325;28;20040;-41
2022/10/07 11:03:34;;;;;;;2.85;1.50;;;20.30;66.20;;;;;;5014885;28;20550;-40
2022/10/07 11:06:02;;;;;;;2.00;1.40;;;20.30;66.00;;;;;;5015400;28;20057;-40
2022/10/07 11:08:31;;;;;;;2.95;1.27;;;20.40;66.10;;;;;;5014362;28;20029;-39
2022/10/07 11:11:08;;;;;;;1.95;1.40;;;20.40;66.10;;;;;;5019410;28;20030;-40
2022/10/07 11:13:45;;;;;;;1.40;1.30;;;20.50;66.20;;;;;;5027553;28;20045;-40
2022/10/07 11:16:37;;;;;;;2.20;1.48;;;20.50;66.20;;;;;;5024222;28;20029;-40
2022/10/07 11:19:18;;;;;;;1.30;1.10;;;20.60;66.20;;;;;;5020749;28;20041;-41
2022/10/07 11:21:50;;;;;;;1.88;1.13;;;20.60;66.20;;;;;;5021168;28;20037;-42
2022/10/07 11:24:34;;;;;;;1.33;1.10;;;20.70;66.30;;;;;;5021943;28;20037;-40
2022/10/07 11:27:15;;;;;;;1.50;1.08;;;20.70;66.20;;;;;;5037312;28;20038;-42
2022/10/07 11:29:50;;;;;;;1.30;1.20;;;20.80;66.20;;;;;;5029192;28;20050;-40
2022/10/07 11:32:16;;;;;;;1.27;0.93;;;20.80;66.20;;;;;;5034255;28;20033;-40
2022/10/07 11:34:55;;;;;;;1.45;1.20;;;20.90;66.30;;;;;;5021441;28;20112;-40
2022/10/07 11:37:46;;;;;;;1.23;0.98;;;20.90;66.20;;;;;;5021537;28;20112;-41
2022/10/07 11:40:12;;;;;;;1.10;1.00;;;21.00;66.20;;;;;;5010062;28;20045;-40
2022/10/07 11:42:47;;;;;;;1.42;1.20;;;21.10;66.20;;;;;;5022667;28;20034;-41
2022/10/07 11:45:24;;;;;;;1.23;0.93;;;21.10;66.10;;;;;;5022333;28;20045;-42
2022/10/07 11:47:53;;;;;;;1.17;1.08;;;21.20;66.10;;;;;;5019852;28;20089;-41
2022/10/07 11:50:23;;;;;;;1.25;1.10;;;21.20;66.10;;;;;;5016557;28;20034;-42
2022/10/07 11:52:51;;;;;;;1.20;0.90;;;21.30;66.00;;;;;;5023469;28;20029;-41
2022/10/07 11:55:21;;;;;;;1.73;1.20;;;21.40;66.10;;;;;;5031823;28;20026;-41
2022/10/07 11:57:57;;;;;;;1.73;0.90;;;21.40;66.00;;;;;;5014720;28;20034;-41
2022/10/07 12:00:33;;;;;;;1.17;1.05;;;21.50;65.90;;;;;;5019851;28;20056;-41
2022/10/07 12:03:35;;;;;;;1.20;1.10;;;21.60;65.80;;;;;;5024932;28;20038;-41
2022/10/07 12:06:11;;;;;;;1.10;0.98;;;21.60;65.80;;;;;;5001829;28;20050;-40
2022/10/07 12:08:40;;;;;;;1.45;1.08;;;21.70;65.80;;;;;;5026569;28;20038;-43
2022/10/07 12:11:15;;;;;;;1.48;1.08;;;21.80;65.70;;;;;;5025988;28;20593;-40
2022/10/07 12:13:41;;;;;;;1.10;1.00;;;21.80;65.70;;;;;;5027156;28;20038;-40
2022/10/07 12:16:28;;;;;;;1.10;0.98;;;21.90;65.60;;;;;;5031944;28;20072;-42
2022/10/07 12:19:07;;;;;;;1.38;1.10;;;22.00;65.50;;;;;;5043256;28;20038;-41
2022/10/07 12:21:58;;;;;;;1.00;0.90;;;22.00;65.30;;;;;;5021657;28;20022;-42
2022/10/07 12:24:34;;;;;;;1.27;1.10;;;22.10;65.20;;;;;;5016829;28;20031;-41
2022/10/07 12:27:16;;;;;;;1.30;1.00;;;22.20;64.80;;;;;;5040730;28;20045;-40
2022/10/07 12:30:01;;;;;;;1.02;0.93;;;22.20;64.30;;;;;;5024767;28;20033;-41
2022/10/07 12:32:49;;;;;;;1.55;1.15;;;22.30;64.10;;;;;;5032396;28;20033;-41
2022/10/07 12:35:33;;;;;;;1.23;1.02;;;22.30;63.70;;;;;;5024102;28;20080;-40
2022/10/07 12:38:27;;;;;;;1.88;1.00;;;22.40;63.40;;;;;;5015663;28;20030;-40
2022/10/07 12:41:24;;;;;;;1.10;1.00;;;22.40;63.10;;;;;;5015036;28;20040;-42
2022/10/07 12:44:27;;;;;;;1.20;1.10;;;22.50;62.70;;;;;;5019848;28;20026;-40
2022/10/07 12:46:53;;;;;;;1.42;1.10;;;22.50;62.30;;;;;;5025480;28;20049;-41
2022/10/07 12:49:22;;;;;;;1.35;1.13;;;22.50;62.10;;;;;;5027233;28;20037;-40
2022/10/07 12:51:48;;;;;;;1.48;1.30;;;22.60;61.90;;;;;;5030699;28;20033;-40
2022/10/07 12:54:19;;;;;;;1.20;1.10;;;22.60;61.60;;;;;;5030814;28;20045;-40
2022/10/07 12:56:46;;;;;;;1.67;1.27;;;22.60;61.30;;;;;;5023400;28;20033;-42
2022/10/07 13:02:38;;;;;;;1.58;1.15;;;22.70;61.10;;;;;;5028810;28;20041;-41
2022/10/07 13:05:35;;;;;;;1.58;1.30;;;22.70;61.10;;;;;;5001511;28;20488;-43
2022/10/07 13:08:20;;;;;;;1.65;1.20;;;22.70;61.10;;;;;;5016746;28;20057;-40
2022/10/07 13:11:14;;;;;;;1.63;1.10;;;22.70;60.80;;;;;;5023032;28;20026;-40
2022/10/07 13:14:02;;;;;;;2.17;1.50;;;22.70;60.60;;;;;;5023130;28;20076;-40
2022/10/07 13:16:48;;;;;;;1.23;1.10;;;22.70;60.30;;;;;;5025396;28;20078;-42
2022/10/07 13:19:23;;;;;;;2.20;1.45;;;22.80;60.50;;;;;;5009491;28;20045;-40
2022/10/07 13:22:11;;;;;;;1.70;1.42;;;22.80;60.60;;;;;;5024261;28;20033;-40
2022/10/07 13:24:39;;;;;;;2.60;1.50;;;22.80;60.70;;;;;;5022466;28;20026;-40